createdAt,value
2022-10-19T00:01:09.566Z,76256.91
2022-10-19T00:03:36.874Z,76253.03
2022-10-19T00:06:12.417Z,76254.97
2022-10-19T00:08:39.358Z,76254.97
2022-10-19T00:11:06.211Z,76254.97
2022-10-19T00:13:33.212Z,76251.13
2022-10-19T00:16:02.593Z,76253.03
2022-10-19T00:18:29.344Z,76258.81
2022-10-19T00:21:03.805Z,76258.81
2022-10-19T00:23:30.602Z,76268.44
2022-10-19T00:25:57.683Z,76276.16
2022-10-19T00:28:24.381Z,76272.31
2022-10-19T00:30:51.353Z,76270.38
2022-10-19T00:33:21.632Z,76276.16
2022-10-19T00:35:52.613Z,76274.22
2022-10-19T00:38:21.321Z,76278.09
2022-10-19T00:40:48.969Z,76274.22
2022-10-19T00:43:17.903Z,76274.22
2022-10-19T00:45:44.749Z,76281.94
2022-10-19T00:48:15.492Z,76283.88
2022-10-19T00:50:43.473Z,76285.78
2022-10-19T00:53:10.595Z,76285.78
2022-10-19T00:55:39.574Z,76287.72
2022-10-19T00:58:06.386Z,76283.88
2022-10-19T01:00:34.558Z,76289.66
2022-10-19T01:03:02.906Z,76295.44
2022-10-19T01:05:30.817Z,76301.22
2022-10-19T01:07:57.977Z,76307.00
2022-10-19T01:10:37.775Z,76305.06
2022-10-19T01:13:24.741Z,76308.91
2022-10-19T01:16:02.590Z,76301.22
2022-10-19T01:18:54.168Z,76316.63
2022-10-19T01:21:37.694Z,76314.69
2022-10-19T01:24:19.624Z,76320.47
2022-10-19T01:26:55.424Z,76318.56
2022-10-19T01:29:40.369Z,76316.63
2022-10-19T01:32:13.236Z,76312.78
2022-10-19T01:34:45.725Z,76316.63
2022-10-19T01:37:15.306Z,76316.63
2022-10-19T01:39:52.262Z,76320.47
2022-10-19T01:42:31.502Z,76324.34
2022-10-19T01:45:20.069Z,76328.19
2022-10-19T01:48:02.146Z,76328.19
2022-10-19T01:50:35.987Z,76328.19
2022-10-19T01:53:09.041Z,76335.91
2022-10-19T01:55:39.626Z,76335.91
2022-10-19T01:58:10.268Z,76339.75
2022-10-19T02:00:41.634Z,76351.31
2022-10-19T02:03:10.104Z,76351.31
2022-10-19T02:05:41.614Z,76359.00
2022-10-19T02:08:14.839Z,76355.16
2022-10-19T02:10:44.613Z,76364.81
2022-10-19T02:13:14.123Z,76360.94
2022-10-19T02:15:45.557Z,76359.00
2022-10-19T02:18:15.676Z,76366.72
2022-10-19T02:20:42.345Z,76366.72
2022-10-19T02:23:09.612Z,76378.28
2022-10-19T02:25:36.828Z,76378.28
2022-10-19T02:28:04.595Z,76374.44
2022-10-19T02:30:31.575Z,76378.28
2022-10-19T02:32:58.213Z,76393.69
2022-10-19T02:35:24.955Z,76405.25
2022-10-19T02:37:51.859Z,76420.69
2022-10-19T02:40:18.581Z,76436.09
2022-10-19T02:43:14.054Z,76459.22
2022-10-19T02:45:51.122Z,76474.63
2022-10-19T02:48:22.038Z,76486.19
2022-10-19T02:50:48.832Z,76501.63
2022-10-19T02:53:16.644Z,76509.31
2022-10-19T02:55:43.414Z,76513.16
2022-10-19T02:58:10.256Z,76511.25
2022-10-19T03:00:36.978Z,76501.63
2022-10-19T03:03:03.738Z,76490.06
2022-10-19T03:05:30.378Z,76497.75
2022-10-19T03:07:57.028Z,76493.91
2022-10-19T03:10:24.268Z,76501.63
2022-10-19T03:12:50.922Z,76495.84
2022-10-19T03:15:18.803Z,76497.75
2022-10-19T03:17:45.433Z,76509.31
2022-10-19T03:20:12.302Z,76513.16
2022-10-19T03:22:38.923Z,76526.66
2022-10-19T03:25:06.129Z,76532.44
2022-10-19T03:27:33.045Z,76534.38
2022-10-19T03:29:59.905Z,76540.16
2022-10-19T03:32:26.848Z,76544.00
2022-10-19T03:34:53.846Z,76545.94
2022-10-19T03:37:20.478Z,76547.84
2022-10-19T03:39:47.068Z,76557.50
2022-10-19T03:42:13.740Z,76567.13
2022-10-19T03:44:40.348Z,76582.53
2022-10-19T03:47:06.923Z,76601.81
2022-10-19T03:49:34.684Z,76617.22
2022-10-19T03:52:03.931Z,76632.66
2022-10-19T03:54:30.550Z,76640.34
2022-10-19T03:56:57.292Z,76655.78
2022-10-19T03:59:24.441Z,76655.78
2022-10-19T04:01:51.182Z,76663.47
2022-10-19T04:04:19.608Z,76657.69
2022-10-19T04:06:48.582Z,76659.63
2022-10-19T04:09:19.243Z,76659.63
2022-10-19T04:11:46.194Z,76667.34
2022-10-19T04:14:22.697Z,76673.13
2022-10-19T04:17:00.264Z,76682.75
2022-10-19T04:19:26.892Z,76694.31
2022-10-19T04:21:53.711Z,76702.03
2022-10-19T04:24:20.383Z,76705.88
2022-10-19T04:26:49.619Z,76713.59
2022-10-19T04:29:19.032Z,76721.28
2022-10-19T04:31:48.094Z,76734.78
2022-10-19T04:34:14.758Z,76744.41
2022-10-19T04:36:41.366Z,76744.41
2022-10-19T04:39:09.096Z,76748.28
2022-10-19T04:41:37.364Z,76755.97
2022-10-19T04:44:06.770Z,76771.41
2022-10-19T04:46:33.556Z,76773.31
2022-10-19T04:49:00.418Z,76782.97
2022-10-19T04:51:27.707Z,76794.53
2022-10-19T04:53:59.360Z,76809.94
2022-10-19T04:56:27.642Z,76819.56
2022-10-19T04:58:56.651Z,76823.44
2022-10-19T05:01:24.199Z,76829.22
2022-10-19T05:04:02.288Z,76825.34
2022-10-19T05:06:30.406Z,76833.06
2022-10-19T05:08:57.147Z,76835.00
2022-10-19T05:11:23.903Z,76844.63
2022-10-19T05:13:51.068Z,76848.47
2022-10-19T05:16:19.989Z,76860.06
2022-10-19T05:18:48.952Z,76860.06
2022-10-19T05:21:16.729Z,76861.97
2022-10-19T05:23:43.542Z,76863.91
2022-10-19T05:26:17.423Z,76869.69
2022-10-19T05:28:48.445Z,76871.63
2022-10-19T05:31:20.281Z,76871.63
2022-10-19T05:33:47.280Z,76863.91
2022-10-19T05:36:27.569Z,76854.28
2022-10-19T05:38:56.980Z,76836.94
2022-10-19T05:41:25.341Z,76811.88
2022-10-19T05:43:54.121Z,76779.09
2022-10-19T05:46:20.929Z,76732.84
2022-10-19T05:48:47.619Z,76688.53
2022-10-19T05:51:17.221Z,76640.34
2022-10-19T05:53:44.220Z,76597.97
2022-10-19T05:56:15.504Z,76570.97
2022-10-19T05:58:42.653Z,76551.72
2022-10-19T06:01:09.576Z,76505.47
2022-10-19T06:03:36.363Z,76486.19
2022-10-19T06:06:07.951Z,76447.66
2022-10-19T06:08:35.481Z,76393.69
2022-10-19T06:11:13.791Z,76339.75
2022-10-19T06:13:42.003Z,76355.16
2022-10-19T06:16:10.370Z,76353.25
2022-10-19T06:18:38.070Z,76337.81
2022-10-19T06:21:06.995Z,76301.22
2022-10-19T06:23:34.645Z,76281.94
2022-10-19T06:26:07.263Z,76301.22
2022-10-19T06:28:35.261Z,76253.03
2022-10-19T06:31:02.391Z,76262.66
2022-10-19T06:33:31.492Z,76239.56
2022-10-19T06:36:16.099Z,76220.28
2022-10-19T06:38:43.169Z,76222.22
2022-10-19T06:41:10.856Z,76193.31
2022-10-19T06:43:37.651Z,76160.56
2022-10-19T06:46:09.312Z,76123.94
2022-10-19T06:48:36.091Z,76208.72
2022-10-19T06:51:06.404Z,76154.78
2022-10-19T06:53:34.672Z,76098.91
2022-10-19T06:56:03.631Z,76102.75
2022-10-19T06:58:31.092Z,76077.69
2022-10-19T07:00:59.764Z,76100.81
2022-10-19T07:03:28.616Z,76150.91
2022-10-19T07:06:16.476Z,76241.47
2022-10-19T07:08:43.650Z,76170.19
2022-10-19T07:11:16.995Z,76139.34
2022-10-19T07:13:44.000Z,76158.63
2022-10-19T07:16:17.582Z,76104.69
2022-10-19T07:18:48.567Z,76108.53
2022-10-19T07:21:16.519Z,76070.00
2022-10-19T07:23:44.933Z,76058.44
2022-10-19T07:26:15.813Z,76039.16
2022-10-19T07:28:44.381Z,76050.72
2022-10-19T07:31:13.270Z,75996.78
2022-10-19T07:33:40.045Z,75973.66
2022-10-19T07:36:08.712Z,75869.63
2022-10-19T07:38:36.141Z,75923.56
2022-10-19T07:41:08.811Z,75942.84
2022-10-19T07:43:35.749Z,75992.94
2022-10-19T07:46:05.813Z,76008.34
2022-10-19T07:48:33.621Z,76048.81
2022-10-19T07:51:02.593Z,76098.91
2022-10-19T07:53:29.386Z,76154.78
2022-10-19T07:55:56.243Z,76166.34
2022-10-19T07:58:22.895Z,76181.75
2022-10-19T08:00:49.524Z,76150.91
2022-10-19T08:04:09.684Z,76175.97
2022-10-19T08:06:05.065Z,76189.44
2022-10-19T08:08:32.322Z,76164.41
2022-10-19T08:11:15.071Z,76127.78
2022-10-19T08:13:41.866Z,76158.63
2022-10-19T08:16:21.038Z,76208.72
2022-10-19T08:18:47.709Z,76174.03
2022-10-19T08:21:14.312Z,76189.44
2022-10-19T08:23:41.471Z,76197.16
2022-10-19T08:26:08.191Z,76204.88
2022-10-19T08:28:34.860Z,76154.78
2022-10-19T08:31:13.549Z,76108.53
2022-10-19T08:33:40.874Z,76104.69
2022-10-19T08:36:08.870Z,76131.66
2022-10-19T08:38:36.655Z,76168.25
2022-10-19T08:41:38.227Z,76143.22
2022-10-19T08:44:29.043Z,76116.25
2022-10-19T08:47:07.974Z,76110.47
2022-10-19T08:49:35.830Z,76112.38
2022-10-19T08:52:25.497Z,76127.78
2022-10-19T08:54:58.684Z,76114.31
2022-10-19T08:57:31.269Z,76131.66
2022-10-19T09:00:31.287Z,76150.91
2022-10-19T09:03:54.547Z,76131.66
2022-10-19T09:06:29.226Z,76139.34
2022-10-19T09:08:57.455Z,76116.25
2022-10-19T09:11:28.598Z,76070.00
2022-10-19T09:14:10.854Z,76039.16
2022-10-19T09:16:37.547Z,76033.38
2022-10-19T09:19:32.128Z,75979.44
2022-10-19T09:22:06.330Z,75952.47
2022-10-19T09:24:46.533Z,76002.56
2022-10-19T09:27:25.006Z,75967.88
2022-10-19T09:29:57.424Z,76017.97
2022-10-19T09:32:32.985Z,76071.91
2022-10-19T09:35:04.984Z,76041.09
2022-10-19T09:37:34.076Z,76060.38
2022-10-19T09:40:00.769Z,76073.84
2022-10-19T09:42:30.347Z,76062.28
2022-10-19T09:44:59.635Z,76044.94
2022-10-19T09:47:39.767Z,76008.34
2022-10-19T09:50:27.201Z,75981.38
2022-10-19T09:52:56.699Z,75946.69
2022-10-19T09:55:39.716Z,75933.19
2022-10-19T09:58:15.411Z,75938.97
2022-10-19T10:00:47.564Z,76012.19
2022-10-19T10:03:23.274Z,76012.19
2022-10-19T10:05:50.644Z,76043.03
2022-10-19T10:08:20.727Z,76062.28
2022-10-19T10:10:54.103Z,76085.41
2022-10-19T10:13:24.553Z,76085.41
2022-10-19T10:15:56.889Z,76091.19
2022-10-19T10:18:25.579Z,76125.88
2022-10-19T10:21:24.417Z,76123.94
2022-10-19T10:24:19.373Z,76093.13
2022-10-19T10:26:51.822Z,76083.47
2022-10-19T10:29:24.339Z,76062.28
2022-10-19T10:31:56.134Z,76073.84
2022-10-19T10:34:45.663Z,76058.44
2022-10-19T10:37:28.235Z,76058.44
2022-10-19T10:40:00.418Z,76050.72
2022-10-19T10:42:35.154Z,76056.50
2022-10-19T10:45:03.783Z,76060.38
2022-10-19T10:47:30.979Z,76058.44
2022-10-19T10:50:05.890Z,76050.72
2022-10-19T10:52:33.265Z,76054.59
2022-10-19T10:55:09.107Z,76087.34
2022-10-19T10:57:40.665Z,76077.69
2022-10-19T11:00:18.053Z,76104.69
2022-10-19T11:02:52.191Z,76066.13
2022-10-19T11:05:40.677Z,76016.03
2022-10-19T11:08:31.479Z,75956.31
2022-10-19T11:11:10.232Z,75927.41
2022-10-19T11:13:36.792Z,75958.25
2022-10-19T11:16:18.530Z,75985.22
2022-10-19T11:18:57.837Z,76012.19
2022-10-19T11:21:49.613Z,75994.84
2022-10-19T11:24:39.269Z,75989.06
2022-10-19T11:27:24.829Z,75989.06
2022-10-19T11:29:54.046Z,75962.09
2022-10-19T11:32:33.118Z,75958.25
2022-10-19T11:35:14.598Z,75923.56
2022-10-19T11:38:30.384Z,75890.81
2022-10-19T11:41:26.857Z,75871.53
2022-10-19T11:44:14.475Z,75850.34
2022-10-19T11:47:18.487Z,75873.47
2022-10-19T11:50:06.909Z,75859.97
2022-10-19T11:52:33.719Z,75900.44
2022-10-19T11:55:15.550Z,75933.19
2022-10-19T11:57:57.179Z,75900.44
2022-10-19T12:00:39.988Z,75854.22
2022-10-19T12:03:38.783Z,75825.31
2022-10-19T12:06:27.610Z,75834.94
2022-10-19T12:09:12.632Z,75838.78
2022-10-19T12:12:19.373Z,75846.50
2022-10-19T12:14:51.821Z,75838.78
2022-10-19T12:17:33.013Z,75842.66
2022-10-19T12:20:05.348Z,75827.22
2022-10-19T12:22:37.345Z,75840.72
2022-10-19T12:25:04.524Z,75844.56
2022-10-19T12:27:37.512Z,75854.22
2022-10-19T12:30:24.593Z,75865.75
2022-10-19T12:33:13.877Z,75848.44
2022-10-19T12:35:56.053Z,75861.91
2022-10-19T12:39:00.062Z,75877.31
2022-10-19T12:41:52.673Z,75869.63
2022-10-19T12:44:38.085Z,75861.91
2022-10-19T12:47:20.198Z,75869.63
2022-10-19T12:49:49.474Z,75846.50
2022-10-19T12:52:44.605Z,75840.72
2022-10-19T12:55:12.332Z,75831.09
2022-10-19T12:57:40.259Z,75825.31
2022-10-19T13:00:20.738Z,75846.50
2022-10-19T13:02:55.637Z,75877.31
2022-10-19T13:05:24.680Z,75885.03
2022-10-19T13:10:27.253Z,75904.28
2022-10-19T13:12:54.270Z,75908.16
2022-10-19T13:15:35.999Z,75912.00
2022-10-19T13:18:13.564Z,75935.13
2022-10-19T13:23:11.598Z,75940.91
2022-10-19T13:25:39.618Z,75950.53
2022-10-19T13:28:06.129Z,75954.38
2022-10-19T13:30:35.749Z,75965.94
2022-10-19T13:33:31.385Z,75977.50
2022-10-19T13:36:01.007Z,75991.00
2022-10-19T13:38:33.783Z,76004.47
2022-10-19T13:41:28.259Z,76004.47
2022-10-19T13:44:01.185Z,76019.91
2022-10-19T13:46:30.787Z,76039.16
2022-10-19T13:49:15.572Z,76058.44
2022-10-19T13:52:14.131Z,76054.59
2022-10-19T13:55:11.967Z,76054.59
2022-10-19T13:58:15.499Z,76077.69
2022-10-19T14:01:14.564Z,76089.25
2022-10-19T14:04:12.289Z,76100.81
2022-10-19T14:06:45.097Z,76104.69
2022-10-19T14:09:15.186Z,76108.53
2022-10-19T14:11:44.327Z,76123.94
2022-10-19T14:14:10.848Z,76139.34
2022-10-19T14:17:03.804Z,76149.00
2022-10-19T14:19:43.800Z,76154.78
2022-10-19T14:22:34.023Z,76166.34
2022-10-19T14:25:04.839Z,76177.91
2022-10-19T14:27:32.088Z,76189.44
2022-10-19T14:29:58.979Z,76204.88
2022-10-19T14:32:28.125Z,76208.72
2022-10-19T14:35:05.959Z,76226.06
2022-10-19T14:37:33.085Z,76229.91
2022-10-19T14:40:28.762Z,76243.41
2022-10-19T14:42:57.371Z,76260.75
2022-10-19T14:45:28.661Z,76266.53
2022-10-19T14:47:55.341Z,76270.38
2022-10-19T14:50:26.839Z,76289.66
2022-10-19T14:53:05.391Z,76297.34
2022-10-19T14:55:37.068Z,76289.66
2022-10-19T14:58:10.530Z,76305.06
2022-10-19T15:00:37.245Z,76303.13
2022-10-19T15:03:10.662Z,76330.13
2022-10-19T15:05:46.719Z,76343.59
2022-10-19T15:08:30.513Z,76360.94
2022-10-19T15:10:57.804Z,76378.28
2022-10-19T15:13:28.605Z,76391.78
2022-10-19T15:15:55.986Z,76395.63
2022-10-19T15:18:47.719Z,76411.03
2022-10-19T15:21:19.241Z,76424.53
2022-10-19T15:23:48.042Z,76439.94
2022-10-19T15:26:17.301Z,76451.50
2022-10-19T15:28:44.653Z,76465.00
2022-10-19T15:31:29.749Z,76476.56
2022-10-19T15:34:02.220Z,76486.19
2022-10-19T15:36:31.204Z,76499.69
2022-10-19T15:39:06.182Z,76509.31
2022-10-19T15:41:44.696Z,76520.88
2022-10-19T15:44:32.205Z,76540.16
2022-10-19T15:47:19.014Z,76551.72
2022-10-19T15:49:45.912Z,76561.34
2022-10-19T15:52:22.409Z,76574.84
2022-10-19T15:54:50.609Z,76590.25
2022-10-19T15:57:38.089Z,76603.75
2022-10-19T16:00:08.325Z,76613.38
2022-10-19T16:02:35.097Z,76611.44
2022-10-19T16:05:01.820Z,76619.16
2022-10-19T16:07:31.859Z,76632.66
2022-10-19T16:09:58.794Z,76638.44
2022-10-19T16:12:26.624Z,76650.00
2022-10-19T16:14:54.183Z,76665.41
2022-10-19T16:17:21.038Z,76671.19
2022-10-19T16:19:47.670Z,76678.91
2022-10-19T16:22:15.516Z,76682.75
2022-10-19T16:24:43.449Z,76694.31
2022-10-19T16:27:14.985Z,76700.09
2022-10-19T16:29:43.096Z,76711.66
2022-10-19T16:32:09.885Z,76719.38
2022-10-19T16:34:36.524Z,76738.63
2022-10-19T16:37:05.930Z,76755.97
2022-10-19T16:39:34.322Z,76763.69
2022-10-19T16:42:00.943Z,76771.41
2022-10-19T16:44:27.532Z,76784.88
2022-10-19T16:46:56.649Z,76790.66
2022-10-19T16:49:23.515Z,76802.22
2022-10-19T16:51:53.211Z,76813.78
2022-10-19T16:54:23.214Z,76825.34
2022-10-19T16:56:49.971Z,76831.13
2022-10-19T16:59:18.707Z,76835.00
2022-10-19T17:01:46.366Z,76848.47
2022-10-19T17:04:14.456Z,76854.28
2022-10-19T17:06:41.356Z,76856.19
2022-10-19T17:11:54.694Z,76861.97
2022-10-19T17:14:21.324Z,76873.53
2022-10-19T17:16:47.937Z,76881.25
2022-10-19T17:19:14.649Z,76898.59
2022-10-19T17:21:42.439Z,76923.66
2022-10-19T17:24:18.453Z,76914.00
2022-10-19T17:26:49.221Z,76921.72
2022-10-19T17:29:16.020Z,76921.72
2022-10-19T17:31:43.424Z,76919.78
2022-10-19T17:34:10.726Z,76948.69
2022-10-19T17:39:18.096Z,76964.13
2022-10-19T17:41:47.141Z,76973.75
2022-10-19T17:44:14.400Z,76987.25
2022-10-19T17:46:41.227Z,76956.41
2022-10-19T17:49:08.139Z,76971.81
2022-10-19T17:51:36.317Z,76991.09
2022-10-19T17:54:07.317Z,77002.66
2022-10-19T17:56:36.016Z,77000.75
2022-10-19T17:59:03.398Z,77008.44
2022-10-19T18:01:31.090Z,77027.72
2022-10-19T18:03:57.867Z,77029.66
2022-10-19T18:06:27.427Z,77025.78
2022-10-19T18:08:56.681Z,77029.66
2022-10-19T18:11:29.390Z,77041.22
2022-10-19T18:13:58.500Z,77043.13
2022-10-19T18:16:36.418Z,77045.06
2022-10-19T18:19:05.089Z,77056.63
2022-10-19T18:21:35.131Z,77073.97
2022-10-19T18:24:03.073Z,77075.91
2022-10-19T18:26:32.520Z,77079.75
2022-10-19T18:29:01.118Z,77079.75
2022-10-19T18:31:30.552Z,77079.75
2022-10-19T18:33:57.340Z,77083.59
2022-10-19T18:36:24.233Z,77075.91
2022-10-19T18:38:52.353Z,77072.03
2022-10-19T18:41:19.282Z,77075.91
2022-10-19T18:43:54.606Z,77083.59
2022-10-19T18:46:22.882Z,77075.91
2022-10-19T18:48:49.953Z,77079.75
2022-10-19T18:51:17.967Z,77097.09
2022-10-19T18:53:45.446Z,77110.59
2022-10-19T18:56:14.484Z,77127.94
2022-10-19T18:58:41.880Z,77137.56
2022-10-19T19:01:09.922Z,77149.13
2022-10-19T19:03:37.953Z,77154.91
2022-10-19T19:06:07.584Z,77151.06
2022-10-19T19:08:34.651Z,77154.91
2022-10-19T19:11:14.925Z,77154.91
2022-10-19T19:13:46.622Z,77164.56
2022-10-19T19:16:13.322Z,77176.13
2022-10-19T19:18:39.998Z,77189.63
2022-10-19T19:21:21.730Z,77191.53
2022-10-19T19:23:49.300Z,77208.88
2022-10-19T19:26:16.819Z,77218.53
2022-10-19T19:28:46.396Z,77224.31
2022-10-19T19:31:17.352Z,77233.94
2022-10-19T19:33:45.484Z,77237.78
2022-10-19T19:36:18.043Z,77245.50
2022-10-19T19:38:45.683Z,77257.06
2022-10-19T19:41:15.401Z,77255.16
2022-10-19T19:43:43.632Z,77255.16
2022-10-19T19:46:13.689Z,77276.34
2022-10-19T19:48:42.241Z,77284.06
2022-10-19T19:51:11.681Z,77293.69
2022-10-19T19:53:39.008Z,77287.91
2022-10-19T19:56:10.802Z,77291.75
2022-10-19T19:58:38.133Z,77284.06
2022-10-19T20:01:13.594Z,77297.53
2022-10-19T20:03:41.396Z,77295.63
2022-10-19T20:06:08.742Z,77295.63
2022-10-19T20:08:36.810Z,77297.53
2022-10-19T20:11:06.035Z,77301.41
2022-10-19T20:13:33.103Z,77305.25
2022-10-19T20:16:06.295Z,77326.47
2022-10-19T20:18:32.893Z,77330.31
2022-10-19T20:21:03.453Z,77345.72
2022-10-19T20:23:31.095Z,77347.66
2022-10-19T20:25:57.904Z,77349.59
2022-10-19T20:28:26.422Z,77349.59
2022-10-19T20:31:04.803Z,77355.38
2022-10-19T20:33:32.745Z,77361.16
2022-10-19T20:36:10.003Z,77359.22
2022-10-19T20:38:38.641Z,77365.00
2022-10-19T20:41:08.289Z,77382.34
2022-10-19T20:43:38.501Z,77382.34
2022-10-19T20:46:08.643Z,77388.13
2022-10-19T20:48:35.312Z,77390.06
2022-10-19T20:51:24.793Z,77393.91
2022-10-19T20:53:55.799Z,77401.63
2022-10-19T20:56:24.980Z,77403.56
2022-10-19T20:58:56.604Z,77409.34
2022-10-19T21:01:24.408Z,77415.13
2022-10-19T21:03:53.627Z,77426.69
2022-10-19T21:06:21.773Z,77436.31
2022-10-19T21:08:49.170Z,77445.97
2022-10-19T21:11:20.140Z,77459.47
2022-10-19T21:13:47.611Z,77457.53
2022-10-19T21:16:19.477Z,77472.94
2022-10-19T21:18:47.669Z,77484.50
2022-10-19T21:21:34.957Z,77494.16
2022-10-19T21:24:08.987Z,77492.22
2022-10-19T21:26:36.863Z,77488.38
2022-10-19T21:29:05.332Z,77501.84
2022-10-19T21:31:32.006Z,77496.06
2022-10-19T21:33:58.767Z,77498.00
2022-10-19T21:36:25.383Z,77507.66
2022-10-19T21:38:52.066Z,77496.06
2022-10-19T21:41:23.749Z,77492.22
2022-10-19T21:43:53.038Z,77507.66
2022-10-19T21:46:22.141Z,77515.34
2022-10-19T21:48:49.784Z,77523.06
2022-10-19T21:51:19.208Z,77530.78
2022-10-19T21:53:46.681Z,77538.47
2022-10-19T21:56:15.434Z,77553.91
2022-10-19T21:58:47.082Z,77580.91
2022-10-19T22:01:14.696Z,77604.03
2022-10-19T22:03:41.731Z,77611.72
2022-10-19T22:06:09.254Z,77634.88
2022-10-19T22:08:36.284Z,77642.56
2022-10-19T22:11:11.187Z,77650.28
2022-10-19T22:13:38.309Z,77654.13
2022-10-19T22:16:11.980Z,77673.41
2022-10-19T22:18:39.366Z,77686.91
2022-10-19T22:21:09.184Z,77692.69
2022-10-19T22:23:36.185Z,77692.69
2022-10-19T22:26:11.136Z,77688.84
2022-10-19T22:28:37.814Z,77688.84
2022-10-19T22:31:04.533Z,77704.25
2022-10-19T22:33:31.202Z,77710.03
2022-10-19T22:36:00.535Z,77704.25
2022-10-19T22:38:28.891Z,77711.97
2022-10-19T22:40:55.677Z,77721.59
2022-10-19T22:43:22.392Z,77733.19
2022-10-19T22:45:50.435Z,77746.66
2022-10-19T22:48:18.414Z,77756.31
2022-10-19T22:50:45.744Z,77754.38
2022-10-19T22:53:14.955Z,77764.03
2022-10-19T22:55:41.749Z,77762.09
2022-10-19T22:58:08.931Z,77758.22
2022-10-19T23:00:36.534Z,77762.09
2022-10-19T23:03:03.387Z,77769.81
2022-10-19T23:05:30.108Z,77765.94
2022-10-19T23:07:56.901Z,77773.66
2022-10-19T23:10:23.697Z,77785.22
2022-10-19T23:12:52.469Z,77792.94
2022-10-19T23:15:20.138Z,77806.44
2022-10-19T23:17:47.231Z,77812.22
2022-10-19T23:20:14.249Z,77819.91
2022-10-19T23:22:40.941Z,77831.50
2022-10-19T23:25:08.612Z,77848.84
2022-10-19T23:27:35.757Z,77858.47
2022-10-19T23:30:04.624Z,77873.91
2022-10-19T23:32:31.411Z,77873.91
2022-10-19T23:34:58.126Z,77881.59
2022-10-19T23:37:24.906Z,77883.53
2022-10-19T23:39:51.638Z,77893.19
2022-10-19T23:42:18.513Z,77897.03
2022-10-19T23:44:45.236Z,77897.03
2022-10-19T23:47:11.957Z,77900.88
2022-10-19T23:49:38.565Z,77902.81
2022-10-19T23:52:05.399Z,77900.88
2022-10-19T23:54:32.064Z,77904.75
2022-10-19T23:56:58.789Z,77893.19
2022-10-19T23:59:25.576Z,77893.19
